Time;durP1;ratioP1;P1;durP2;ratioP2;P2;SDS_P1;SDS_P2;PMS_P1;PMS_P2;Temp;Humidity;BMP_temperature;BMP_pressure;BME280_temperature;BME280_humidity;BME280_pressure;Samples;Min_cycle;Max_cycle;Signal;HPM_P1;HPM_P2
2021/10/02 00:35:06;;;;;;;13.80;12.60;;;13.60;99.90;;;;;;5070612;28;20269;-64
2021/10/02 00:45:50;;;;;;;13.27;12.00;;;13.70;99.90;;;;;;5071553;28;20216;-64
2021/10/02 00:48:15;;;;;;;14.37;13.13;;;13.70;99.90;;;;;;5066935;28;20207;-63
2021/10/02 00:50:44;;;;;;;15.70;14.30;;;13.70;99.90;;;;;;5050823;28;20206;-63
2021/10/02 00:53:10;;;;;;;14.90;13.50;;;13.80;99.90;;;;;;5053453;28;20270;-63
2021/10/02 00:55:36;;;;;;;15.43;14.33;;;13.80;99.90;;;;;;5071233;28;20615;-64
2021/10/02 00:58:01;;;;;;;13.40;11.90;;;13.70;99.90;;;;;;5070008;28;20167;-63
2021/10/02 01:00:27;;;;;;;13.17;11.97;;;13.80;99.90;;;;;;5050868;28;20191;-64
2021/10/02 01:03:11;;;;;;;15.33;14.53;;;13.80;99.90;;;;;;5061166;28;20186;-64
2021/10/02 01:05:59;;;;;;;10.37;9.80;;;13.80;99.90;;;;;;5068054;28;20175;-64
2021/10/02 01:09:19;;;;;;;9.57;8.90;;;13.80;99.90;;;;;;5050985;28;20182;-64
2021/10/02 01:11:51;;;;;;;8.70;8.30;;;13.80;99.90;;;;;;5046333;28;20269;-63
2021/10/02 01:14:16;;;;;;;12.10;11.43;;;13.80;99.90;;;;;;5053926;28;20179;-64
2021/10/02 01:16:45;;;;;;;5.93;5.60;;;13.80;99.90;;;;;;5061563;28;20189;-64
2021/10/02 01:19:48;;;;;;;9.43;8.80;;;13.80;99.90;;;;;;5072416;28;20201;-64
2021/10/02 01:22:35;;;;;;;5.20;5.00;;;13.70;99.90;;;;;;5060247;28;20187;-64
2021/10/02 01:25:17;;;;;;;7.80;7.40;;;13.70;99.90;;;;;;5053444;28;20171;-64
2021/10/02 01:27:51;;;;;;;6.30;5.83;;;13.80;99.90;;;;;;5072174;28;20178;-64
2021/10/02 01:48:06;;;;;;;5.87;5.50;;;14.00;99.90;;;;;;5074108;28;20181;-64
2021/10/02 01:50:36;;;;;;;7.10;6.40;;;14.00;99.90;;;;;;5060433;28;20207;-64
2021/10/02 01:53:04;;;;;;;7.33;6.80;;;14.00;99.90;;;;;;5054271;28;20171;-64
2021/10/02 01:55:31;;;;;;;7.97;7.30;;;14.10;99.90;;;;;;5066063;28;20528;-64
2021/10/02 01:58:01;;;;;;;9.87;9.17;;;14.00;99.90;;;;;;5073981;28;20174;-64
2021/10/02 02:00:27;;;;;;;7.20;6.70;;;14.00;99.90;;;;;;5072165;28;20250;-64
2021/10/02 02:02:57;;;;;;;7.07;6.63;;;14.00;99.90;;;;;;5073197;28;20190;-64
2021/10/02 02:05:27;;;;;;;6.13;5.60;;;14.10;99.90;;;;;;5054278;28;20683;-64
2021/10/02 02:07:58;;;;;;;6.00;5.50;;;14.10;99.90;;;;;;5053821;28;20204;-64
2021/10/02 02:10:25;;;;;;;7.50;7.10;;;14.00;99.90;;;;;;5053490;28;20207;-64
2021/10/02 02:12:54;;;;;;;5.70;5.40;;;14.00;99.90;;;;;;5053936;28;20167;-64
2021/10/02 02:15:20;;;;;;;6.10;5.60;;;13.90;99.90;;;;;;5073202;28;20185;-64
2021/10/02 02:17:53;;;;;;;7.20;5.97;;;13.90;99.90;;;;;;5073753;28;20631;-64
2021/10/02 02:20:37;;;;;;;6.40;5.80;;;13.90;99.90;;;;;;5054510;28;20214;-67
2021/10/02 02:23:04;;;;;;;6.70;6.30;;;13.90;99.90;;;;;;5055138;28;20549;-67
2021/10/02 02:25:31;;;;;;;6.00;5.60;;;13.80;99.90;;;;;;5073187;28;20182;-68
2021/10/02 02:27:57;;;;;;;6.07;5.70;;;13.80;99.90;;;;;;5074433;28;20647;-69
2021/10/02 02:30:24;;;;;;;6.13;5.60;;;13.80;99.90;;;;;;5059640;28;20217;-69
2021/10/02 02:32:51;;;;;;;6.43;5.87;;;13.90;99.90;;;;;;5067148;28;20175;-70
2021/10/02 02:35:22;;;;;;;5.90;5.50;;;14.00;99.90;;;;;;5054946;28;20186;-66
2021/10/02 02:37:48;;;;;;;6.27;5.90;;;13.90;99.90;;;;;;5061117;28;20174;-67
2021/10/02 02:40:15;;;;;;;6.80;6.20;;;14.00;99.90;;;;;;5074052;28;20732;-68
2021/10/02 02:42:41;;;;;;;5.70;5.30;;;14.00;99.90;;;;;;5069466;28;20183;-70
2021/10/02 02:45:08;;;;;;;5.73;5.27;;;14.10;99.90;;;;;;5054442;28;20245;-69
2021/10/02 02:47:40;;;;;;;6.83;6.20;;;14.10;99.90;;;;;;5057643;28;20178;-67
2021/10/02 02:50:41;;;;;;;6.30;5.70;;;14.10;99.90;;;;;;5074076;28;20717;-69
2021/10/02 02:53:14;;;;;;;5.87;5.47;;;14.10;99.90;;;;;;5053652;28;20182;-70
2021/10/02 02:55:46;;;;;;;6.13;5.63;;;14.10;99.90;;;;;;5054881;28;20166;-70
2021/10/02 02:58:12;;;;;;;5.63;5.33;;;14.10;99.90;;;;;;5061144;28;20195;-67
2021/10/02 03:00:53;;;;;;;6.03;5.63;;;14.10;99.90;;;;;;5074194;28;20560;-70
2021/10/02 03:03:26;;;;;;;6.40;5.90;;;14.10;99.90;;;;;;5055353;28;20177;-69
2021/10/02 03:05:54;;;;;;;6.73;6.30;;;14.10;99.90;;;;;;5053341;28;20502;-66
2021/10/02 03:08:21;;;;;;;6.20;5.80;;;14.00;99.90;;;;;;5072461;28;20174;-70
2021/10/02 03:10:50;;;;;;;5.97;5.67;;;14.00;99.90;;;;;;5074113;28;20193;-70
2021/10/02 03:13:19;;;;;;;6.27;5.87;;;14.00;99.90;;;;;;5055115;28;20179;-67
2021/10/02 03:15:47;;;;;;;5.80;5.50;;;14.00;99.90;;;;;;5053919;28;20175;-66
2021/10/02 03:18:13;;;;;;;6.40;6.00;;;14.10;99.90;;;;;;5057120;28;20177;-69
2021/10/02 03:20:40;;;;;;;6.50;6.00;;;14.10;99.90;;;;;;5053682;28;20617;-69
2021/10/02 03:23:07;;;;;;;6.83;6.10;;;14.10;99.90;;;;;;5067185;28;20182;-67
2021/10/02 03:25:33;;;;;;;7.20;6.80;;;14.10;99.90;;;;;;5053601;28;20224;-69
2021/10/02 03:28:01;;;;;;;6.20;5.80;;;14.10;99.90;;;;;;5066429;28;20178;-68
2021/10/02 03:30:29;;;;;;;6.30;5.90;;;14.10;99.90;;;;;;5064692;28;20207;-66
2021/10/02 03:32:55;;;;;;;6.77;6.30;;;14.10;99.90;;;;;;5053260;28;20224;-68
2021/10/02 03:35:22;;;;;;;6.40;6.00;;;14.10;99.90;;;;;;5055169;28;20174;-68
2021/10/02 03:37:51;;;;;;;6.03;5.73;;;14.10;99.90;;;;;;5057162;28;20232;-68
2021/10/02 03:40:18;;;;;;;5.97;5.67;;;14.10;99.90;;;;;;5067490;28;20193;-68
2021/10/02 03:42:55;;;;;;;6.03;5.73;;;14.10;99.90;;;;;;5071206;28;20304;-68
2021/10/02 03:45:24;;;;;;;6.20;5.80;;;14.10;99.90;;;;;;5053563;28;20262;-69
2021/10/02 03:47:50;;;;;;;6.20;5.80;;;14.00;99.90;;;;;;5055058;28;20166;-66
2021/10/02 03:50:16;;;;;;;6.37;5.90;;;14.00;99.90;;;;;;5073304;28;20680;-70
2021/10/02 03:52:43;;;;;;;6.80;6.40;;;13.90;99.90;;;;;;5072391;28;20595;-63
2021/10/02 03:55:11;;;;;;;6.53;6.23;;;13.80;99.90;;;;;;5051935;28;20174;-63
2021/10/02 03:57:37;;;;;;;6.50;6.10;;;13.70;99.90;;;;;;5062101;28;20258;-65
2021/10/02 04:00:04;;;;;;;6.67;6.27;;;13.70;99.90;;;;;;5057490;28;20230;-63
2021/10/02 04:02:30;;;;;;;6.97;6.57;;;13.50;99.90;;;;;;5060375;28;20174;-62
2021/10/02 04:04:55;;;;;;;6.93;6.33;;;13.50;99.90;;;;;;5071678;28;20529;-63
2021/10/02 04:07:21;;;;;;;7.13;6.73;;;13.50;99.90;;;;;;5059078;28;20372;-63
2021/10/02 04:09:47;;;;;;;6.73;6.30;;;13.50;99.90;;;;;;5051307;28;20210;-63
2021/10/02 04:12:13;;;;;;;6.77;6.37;;;13.40;99.90;;;;;;5062281;28;20772;-63
2021/10/02 04:14:38;;;;;;;6.93;6.63;;;13.40;99.90;;;;;;5055955;28;20182;-63
2021/10/02 04:17:04;;;;;;;6.90;6.50;;;13.40;99.90;;;;;;5060468;28;20232;-63
2021/10/02 04:19:29;;;;;;;7.10;6.60;;;13.40;99.90;;;;;;5071302;28;20532;-63
2021/10/02 04:21:55;;;;;;;7.10;6.50;;;13.50;99.90;;;;;;5064212;28;20178;-65
2021/10/02 04:24:23;;;;;;;6.93;6.57;;;13.40;99.90;;;;;;5051555;28;20167;-62
2021/10/02 04:26:48;;;;;;;7.40;6.90;;;13.40;99.90;;;;;;5056680;28;20538;-63
2021/10/02 04:29:14;;;;;;;7.40;7.00;;;13.50;99.90;;;;;;5059861;28;20214;-63
2021/10/02 04:31:40;;;;;;;7.97;7.20;;;13.50;99.90;;;;;;5054748;28;20650;-65
2021/10/02 04:34:06;;;;;;;7.90;7.30;;;13.60;99.90;;;;;;5071291;28;20548;-63
2021/10/02 04:36:32;;;;;;;8.93;8.10;;;13.60;99.90;;;;;;5069693;28;20173;-65
2021/10/02 04:38:58;;;;;;;8.50;7.70;;;13.70;99.90;;;;;;5051146;28;20182;-63
2021/10/02 04:41:24;;;;;;;7.50;7.00;;;13.60;99.90;;;;;;5051392;28;20538;-65
2021/10/02 04:43:49;;;;;;;7.93;7.40;;;13.70;99.90;;;;;;5053003;28;20174;-63
2021/10/02 04:46:17;;;;;;;7.70;7.10;;;13.60;99.90;;;;;;5051085;28;20171;-63
2021/10/02 04:48:43;;;;;;;7.80;7.20;;;13.60;99.90;;;;;;5069477;28;20272;-63
2021/10/02 04:51:09;;;;;;;8.37;7.87;;;13.60;99.90;;;;;;5071159;28;20198;-65
2021/10/02 04:53:35;;;;;;;7.80;7.30;;;13.60;99.90;;;;;;5058452;28;20175;-65
2021/10/02 04:56:06;;;;;;;6.87;6.47;;;13.50;99.90;;;;;;5061224;28;20257;-65
2021/10/02 04:58:31;;;;;;;7.83;7.03;;;13.50;99.90;;;;;;5075356;28;20174;-63
2021/10/02 05:00:58;;;;;;;7.27;6.60;;;13.50;99.90;;;;;;5069388;28;20285;-65
2021/10/02 05:03:24;;;;;;;7.30;6.80;;;13.50;99.90;;;;;;5055145;28;20171;-63
2021/10/02 05:05:50;;;;;;;7.10;6.60;;;13.50;99.90;;;;;;5058276;28;20674;-65
2021/10/02 05:08:16;;;;;;;7.87;7.20;;;13.50;99.90;;;;;;5074509;28;20198;-63
2021/10/02 05:10:41;;;;;;;7.80;7.07;;;13.50;99.90;;;;;;5072920;28;20652;-63
2021/10/02 05:13:07;;;;;;;7.60;6.93;;;13.50;99.90;;;;;;5054052;28;20170;-63
2021/10/02 05:15:33;;;;;;;7.60;7.10;;;13.50;99.90;;;;;;5055018;28;20225;-63
2021/10/02 05:18:00;;;;;;;7.47;7.00;;;13.40;99.90;;;;;;5074519;28;20185;-63
2021/10/02 05:20:25;;;;;;;7.73;7.03;;;13.40;99.90;;;;;;5074524;28;20217;-63
2021/10/02 05:22:51;;;;;;;7.87;7.37;;;13.40;99.90;;;;;;5056608;28;20214;-65
2021/10/02 05:25:17;;;;;;;11.03;7.60;;;13.40;99.90;;;;;;5062113;28;20269;-65
2021/10/02 05:27:42;;;;;;;7.47;6.80;;;13.40;99.90;;;;;;5074772;28;20272;-63
2021/10/02 05:30:08;;;;;;;7.43;6.93;;;13.40;99.90;;;;;;5059344;28;20223;-63
2021/10/02 05:32:34;;;;;;;7.67;7.17;;;13.30;99.90;;;;;;5054637;28;20648;-63
2021/10/02 05:35:00;;;;;;;7.10;6.60;;;13.30;99.90;;;;;;5067032;28;20229;-65
2021/10/02 05:37:25;;;;;;;8.03;7.33;;;13.20;99.90;;;;;;5074580;28;20178;-63
2021/10/02 05:39:51;;;;;;;8.53;7.93;;;13.20;99.90;;;;;;5070652;28;20209;-63
2021/10/02 05:42:17;;;;;;;9.10;8.13;;;13.20;99.90;;;;;;5068510;28;20587;-63
2021/10/02 05:44:42;;;;;;;9.10;8.50;;;13.20;99.90;;;;;;5074300;28;20174;-66
2021/10/02 05:47:08;;;;;;;10.70;9.83;;;13.10;99.90;;;;;;5065912;28;20191;-64
2021/10/02 05:49:34;;;;;;;8.60;8.00;;;13.00;99.90;;;;;;5053677;28;20220;-64
2021/10/02 05:52:00;;;;;;;8.60;7.80;;;13.00;99.90;;;;;;5058701;28;20174;-63
2021/10/02 05:54:25;;;;;;;10.37;9.67;;;12.90;99.90;;;;;;5074110;28;20171;-64
2021/10/02 05:56:51;;;;;;;8.00;7.40;;;12.90;99.90;;;;;;5067578;28;20277;-63
2021/10/02 05:59:17;;;;;;;8.70;8.00;;;12.90;99.90;;;;;;5053612;28;20217;-64
2021/10/02 06:01:42;;;;;;;10.10;9.27;;;12.80;99.90;;;;;;5064046;28;20228;-66
2021/10/02 06:04:08;;;;;;;9.03;8.33;;;12.80;99.90;;;;;;5072177;28;20205;-64
2021/10/02 06:06:34;;;;;;;10.60;9.80;;;12.80;99.90;;;;;;5070663;28;20182;-64
2021/10/02 06:08:59;;;;;;;8.67;8.07;;;12.80;99.90;;;;;;5073316;28;20205;-63
2021/10/02 06:11:25;;;;;;;8.23;7.63;;;12.90;99.90;;;;;;5066699;28;20187;-62
2021/10/02 06:13:51;;;;;;;8.30;7.50;;;13.00;99.90;;;;;;5054953;28;20202;-66
2021/10/02 06:16:17;;;;;;;7.83;7.17;;;13.00;99.90;;;;;;5059730;28;20182;-65
2021/10/02 06:18:43;;;;;;;8.97;7.70;;;13.00;99.90;;;;;;5075074;28;20208;-63
2021/10/02 06:21:11;;;;;;;9.30;8.40;;;13.10;99.90;;;;;;5058775;28;20279;-65
2021/10/02 06:23:40;;;;;;;12.47;10.30;;;13.10;99.90;;;;;;5053704;28;20175;-65
2021/10/02 06:26:06;;;;;;;11.60;10.60;;;13.20;99.90;;;;;;5066970;28;20239;-65
2021/10/02 06:28:32;;;;;;;17.47;16.07;;;13.20;99.90;;;;;;5073463;28;20535;-65
2021/10/02 06:30:57;;;;;;;11.13;10.37;;;13.20;99.90;;;;;;5061051;28;20205;-64
2021/10/02 06:33:23;;;;;;;7.90;7.13;;;13.30;99.90;;;;;;5053322;28;20187;-65
2021/10/02 06:35:49;;;;;;;8.27;7.70;;;13.30;99.90;;;;;;5063152;28;20178;-63
2021/10/02 06:38:15;;;;;;;8.27;7.60;;;13.30;99.90;;;;;;5072957;28;20223;-63
2021/10/02 06:40:43;;;;;;;8.47;7.67;;;13.40;99.90;;;;;;5064186;28;20214;-64
2021/10/02 06:43:09;;;;;;;11.93;10.83;;;13.40;99.90;;;;;;5053024;28;20604;-63
2021/10/02 06:45:35;;;;;;;10.00;9.03;;;13.50;99.90;;;;;;5059950;28;20239;-66
2021/10/02 06:48:00;;;;;;;8.47;7.77;;;13.70;99.90;;;;;;5072904;28;20174;-63
2021/10/02 06:50:26;;;;;;;8.00;7.40;;;13.90;99.90;;;;;;5055799;28;20218;-65
2021/10/02 06:52:52;;;;;;;7.60;7.03;;;14.20;99.90;;;;;;5052943;28;20210;-63
2021/10/02 06:55:18;;;;;;;6.97;6.47;;;14.50;99.90;;;;;;5067234;28;20201;-63
2021/10/02 06:57:43;;;;;;;6.50;5.90;;;14.80;99.90;;;;;;5072943;28;20175;-63
2021/10/02 07:00:10;;;;;;;6.70;6.20;;;15.00;99.90;;;;;;5058910;28;20199;-64
2021/10/02 07:02:44;;;;;;;6.93;6.53;;;15.10;99.90;;;;;;5059138;28;20262;-63
2021/10/02 07:05:11;;;;;;;7.60;7.00;;;15.10;99.90;;;;;;5071701;28;20193;-63
2021/10/02 07:07:40;;;;;;;7.80;7.20;;;15.00;99.90;;;;;;5067454;28;20182;-63
2021/10/02 07:10:06;;;;;;;8.27;7.77;;;14.90;99.90;;;;;;5052108;28;20695;-63
2021/10/02 07:12:32;;;;;;;8.23;7.73;;;14.80;99.90;;;;;;5066053;28;20249;-63
2021/10/02 07:14:58;;;;;;;8.57;8.07;;;14.70;99.90;;;;;;5061451;28;20183;-63
2021/10/02 07:17:24;;;;;;;8.50;7.90;;;14.70;99.90;;;;;;5052656;28;20217;-63
2021/10/02 07:19:50;;;;;;;7.97;7.47;;;14.60;99.90;;;;;;5070832;28;20206;-63
2021/10/02 07:22:16;;;;;;;8.80;8.10;;;14.70;99.90;;;;;;5072045;28;20174;-63
2021/10/02 07:24:42;;;;;;;7.73;7.23;;;14.80;99.90;;;;;;5054678;28;20198;-65
2021/10/02 07:27:08;;;;;;;7.10;6.50;;;14.80;99.90;;;;;;5053572;28;20205;-64
2021/10/02 07:29:33;;;;;;;6.90;6.20;;;14.80;99.90;;;;;;5071908;28;20705;-63
2021/10/02 07:31:59;;;;;;;7.90;7.37;;;14.80;99.90;;;;;;5065887;28;20186;-63
2021/10/02 07:34:25;;;;;;;8.37;7.67;;;14.80;99.90;;;;;;5063721;28;20697;-62
2021/10/02 07:36:50;;;;;;;6.70;6.30;;;14.70;99.90;;;;;;5057421;28;20193;-63
2021/10/02 07:39:16;;;;;;;7.97;7.27;;;14.70;99.90;;;;;;5052807;28;20568;-63
2021/10/02 07:41:44;;;;;;;7.23;6.70;;;14.80;99.90;;;;;;5052079;28;20571;-63
2021/10/02 07:44:12;;;;;;;7.33;6.33;;;14.90;99.90;;;;;;5054783;28;20186;-62
2021/10/02 07:46:45;;;;;;;10.33;7.17;;;14.90;99.90;;;;;;5051887;28;20189;-63
2021/10/02 07:49:10;;;;;;;7.27;6.63;;;14.90;99.90;;;;;;5068954;28;20293;-65
2021/10/02 07:51:36;;;;;;;19.53;10.87;;;14.90;99.90;;;;;;5071819;28;20617;-63
2021/10/02 07:54:04;;;;;;;10.03;6.27;;;14.90;99.90;;;;;;5055205;28;20244;-63
2021/10/02 07:56:34;;;;;;;7.10;6.60;;;15.00;99.90;;;;;;5051709;28;20712;-63
2021/10/02 07:59:05;;;;;;;7.90;7.13;;;15.10;99.90;;;;;;5066244;28;20221;-63
2021/10/02 08:01:31;;;;;;;6.07;5.57;;;15.10;99.90;;;;;;5071656;28;20189;-63
2021/10/02 08:03:57;;;;;;;7.10;6.43;;;15.10;99.90;;;;;;5056480;28;20183;-64
2021/10/02 08:06:24;;;;;;;7.37;6.97;;;15.10;99.90;;;;;;5070406;28;20182;-63
2021/10/02 08:08:51;;;;;;;8.83;7.27;;;15.20;99.90;;;;;;5058427;28;20210;-63
2021/10/02 08:11:17;;;;;;;6.93;6.37;;;15.30;99.90;;;;;;5051257;28;20182;-62
2021/10/02 08:13:42;;;;;;;8.30;7.87;;;15.40;99.90;;;;;;5062573;28;20654;-63
2021/10/02 08:16:09;;;;;;;6.20;5.70;;;15.60;99.90;;;;;;5070630;28;20177;-63
2021/10/02 08:18:39;;;;;;;6.67;6.27;;;15.70;99.90;;;;;;5051402;28;20292;-62
2021/10/02 08:21:06;;;;;;;6.27;5.77;;;15.90;99.90;;;;;;5050961;28;20191;-62
2021/10/02 08:23:36;;;;;;;6.10;5.70;;;16.10;99.90;;;;;;5066330;28;20184;-63
2021/10/02 08:26:03;;;;;;;6.10;5.60;;;16.30;99.90;;;;;;5058859;28;20189;-61
2021/10/02 08:28:31;;;;;;;6.67;6.27;;;16.40;99.90;;;;;;5050661;28;20257;-64
2021/10/02 08:31:02;;;;;;;8.10;7.37;;;16.50;99.90;;;;;;5060210;28;20202;-63
2021/10/02 08:33:27;;;;;;;6.97;6.50;;;16.80;99.90;;;;;;5071311;28;20590;-63
2021/10/02 08:35:53;;;;;;;7.17;6.50;;;17.00;99.90;;;;;;5062310;28;20194;-65
2021/10/02 08:38:19;;;;;;;7.50;6.90;;;17.10;99.90;;;;;;5051442;28;20220;-65
2021/10/02 08:40:46;;;;;;;8.77;7.07;;;17.00;99.90;;;;;;5057600;28;20399;-63
2021/10/02 08:43:13;;;;;;;6.83;6.23;;;17.10;99.90;;;;;;5071045;28;20177;-65
2021/10/02 08:45:39;;;;;;;7.03;6.40;;;17.00;99.90;;;;;;5065451;28;20659;-64
2021/10/02 08:48:10;;;;;;;7.43;6.93;;;17.00;99.90;;;;;;5051056;28;20182;-65
2021/10/02 08:50:40;;;;;;;7.30;6.77;;;17.00;99.90;;;;;;5055181;28;20297;-65
2021/10/02 08:53:06;;;;;;;8.73;8.13;;;16.90;99.90;;;;;;5045977;28;20240;-65
2021/10/02 08:55:33;;;;;;;7.40;6.90;;;16.80;99.90;;;;;;5050846;28;20193;-65
2021/10/02 08:58:00;;;;;;;7.10;6.60;;;16.90;99.90;;;;;;5049403;28;20183;-65
2021/10/02 09:00:27;;;;;;;6.80;6.20;;;16.90;99.90;;;;;;5052480;28;20195;-65
2021/10/02 09:02:53;;;;;;;7.33;6.70;;;17.00;99.90;;;;;;5070813;28;20193;-65
2021/10/02 09:05:21;;;;;;;7.00;6.40;;;17.20;99.90;;;;;;5069924;28;20186;-65
2021/10/02 09:07:49;;;;;;;7.23;6.73;;;17.10;99.90;;;;;;5050903;28;20178;-63
2021/10/02 09:10:15;;;;;;;7.10;6.40;;;17.20;99.90;;;;;;5050299;28;20221;-65
2021/10/02 09:12:42;;;;;;;7.23;6.57;;;17.40;99.90;;;;;;5068719;28;20185;-63
2021/10/02 09:15:08;;;;;;;7.10;6.50;;;17.50;99.90;;;;;;5070616;28;20258;-63
2021/10/02 09:17:34;;;;;;;6.83;6.33;;;17.60;99.90;;;;;;5075043;28;20617;-65
2021/10/02 09:20:00;;;;;;;6.70;6.13;;;17.80;99.90;;;;;;5079904;28;20292;-64
2021/10/02 09:22:27;;;;;;;7.93;6.13;;;17.90;99.90;;;;;;5079246;28;20186;-63
2021/10/02 09:24:56;;;;;;;6.23;5.73;;;18.10;99.90;;;;;;5070536;28;20190;-63
2021/10/02 09:27:24;;;;;;;6.00;5.60;;;18.40;99.90;;;;;;5054846;28;20175;-62
2021/10/02 09:30:08;;;;;;;6.57;5.97;;;18.60;99.90;;;;;;5050120;28;20226;-63
2021/10/02 09:32:59;;;;;;;6.87;6.37;;;18.60;99.90;;;;;;5066503;28;20173;-65
2021/10/02 09:35:25;;;;;;;7.30;6.80;;;18.30;99.90;;;;;;5058162;28;20187;-66
2021/10/02 09:37:55;;;;;;;7.50;7.07;;;18.00;99.90;;;;;;5050627;28;20179;-62
2021/10/02 09:40:24;;;;;;;6.93;6.53;;;17.90;99.90;;;;;;5064769;28;20198;-65
2021/10/02 09:42:53;;;;;;;7.23;6.53;;;18.00;99.90;;;;;;5074240;28;20178;-64
2021/10/02 09:45:24;;;;;;;7.23;6.63;;;17.90;99.90;;;;;;5072471;28;20211;-63
2021/10/02 09:47:53;;;;;;;7.23;6.73;;;17.80;99.90;;;;;;5073434;28;20174;-63
2021/10/02 09:50:25;;;;;;;7.00;6.60;;;18.00;99.90;;;;;;5068797;28;20276;-63
2021/10/02 09:52:56;;;;;;;7.00;6.60;;;18.10;99.90;;;;;;5060663;28;20186;-63
2021/10/02 09:55:30;;;;;;;7.20;6.70;;;18.30;99.90;;;;;;5054180;28;20179;-63
2021/10/02 09:58:05;;;;;;;8.23;6.17;;;18.20;99.90;;;;;;5052338;28;20658;-63
2021/10/02 10:00:32;;;;;;;6.60;6.20;;;18.20;99.90;;;;;;5063609;28;20211;-63
2021/10/02 10:02:59;;;;;;;7.53;6.83;;;18.10;99.90;;;;;;5073723;28;20182;-63
2021/10/02 10:05:32;;;;;;;6.80;6.20;;;18.00;99.90;;;;;;5064695;28;20205;-64
2021/10/02 10:08:00;;;;;;;8.50;7.90;;;18.00;99.90;;;;;;5053587;28;20640;-64
2021/10/02 10:10:28;;;;;;;7.77;7.23;;;18.00;99.90;;;;;;5061928;28;20274;-64
2021/10/02 10:12:55;;;;;;;7.07;6.63;;;18.00;99.90;;;;;;5071038;28;20257;-64
2021/10/02 10:15:36;;;;;;;7.10;6.50;;;17.90;99.90;;;;;;5053728;28;20225;-64
2021/10/02 10:18:03;;;;;;;8.30;7.70;;;17.80;99.90;;;;;;5056017;28;20182;-64
2021/10/02 10:20:31;;;;;;;7.47;6.97;;;17.80;99.90;;;;;;5073060;28;20202;-63
2021/10/02 10:22:59;;;;;;;7.40;6.93;;;17.80;99.90;;;;;;5071797;28;20174;-63
2021/10/02 10:25:24;;;;;;;8.03;7.43;;;17.90;99.90;;;;;;5052222;28;20182;-63
2021/10/02 10:27:50;;;;;;;6.10;5.70;;;18.20;99.90;;;;;;5053483;28;20637;-64
2021/10/02 10:30:25;;;;;;;6.30;5.90;;;18.70;99.90;;;;;;5072601;28;20310;-64
2021/10/02 10:32:59;;;;;;;6.30;5.80;;;19.00;99.90;;;;;;5073287;28;20169;-64
2021/10/02 10:35:29;;;;;;;6.03;5.73;;;19.50;99.90;;;;;;5053477;28;20257;-64
2021/10/02 10:37:55;;;;;;;5.33;5.03;;;20.20;99.90;;;;;;5053137;28;20328;-64
2021/10/02 10:40:21;;;;;;;5.50;5.00;;;20.60;99.90;;;;;;5072031;28;20212;-64
2021/10/02 10:42:46;;;;;;;5.13;4.83;;;20.70;99.90;;;;;;5058040;28;20595;-64
2021/10/02 10:45:12;;;;;;;5.50;5.03;;;20.40;99.90;;;;;;5052945;28;20182;-64
2021/10/02 10:47:38;;;;;;;5.70;5.40;;;20.20;99.90;;;;;;5066199;28;20201;-64
2021/10/02 10:50:05;;;;;;;5.20;4.90;;;20.30;99.90;;;;;;5072102;28;20213;-64
2021/10/02 10:52:40;;;;;;;5.27;4.97;;;20.60;99.90;;;;;;5071215;28;20552;-63
2021/10/02 10:55:20;;;;;;;5.47;5.17;;;20.70;99.90;;;;;;5073031;28;20251;-64
2021/10/02 10:57:48;;;;;;;4.53;4.33;;;20.80;99.90;;;;;;5065369;28;20178;-64
2021/10/02 11:00:31;;;;;;;4.77;4.47;;;21.10;99.90;;;;;;5072217;28;20201;-64
2021/10/02 11:03:01;;;;;;;5.30;5.00;;;21.10;99.90;;;;;;5070969;28;20186;-64
2021/10/02 11:05:43;;;;;;;5.87;5.57;;;20.80;99.90;;;;;;5072698;28;20178;-64
2021/10/02 11:08:19;;;;;;;5.33;5.03;;;20.50;99.90;;;;;;5060746;28;20652;-64
2021/10/02 11:10:49;;;;;;;4.80;4.60;;;20.70;99.90;;;;;;5052113;28;20206;-64
2021/10/02 11:14:01;;;;;;;5.33;4.93;;;20.80;99.90;;;;;;5053559;28;20175;-64
2021/10/02 11:16:35;;;;;;;5.23;4.93;;;20.90;99.90;;;;;;5051953;28;20183;-63
2021/10/02 11:19:01;;;;;;;5.23;4.93;;;20.80;99.90;;;;;;5052010;28;20185;-64
2021/10/02 11:21:30;;;;;;;5.43;5.13;;;20.80;99.90;;;;;;5051634;28;20189;-63
2021/10/02 11:24:14;;;;;;;5.70;5.40;;;20.70;99.90;;;;;;5072218;28;20174;-64
2021/10/02 11:26:44;;;;;;;5.73;5.33;;;20.60;99.90;;;;;;5057768;28;20321;-63
2021/10/02 11:29:44;;;;;;;4.37;4.10;;;20.80;99.90;;;;;;5051720;28;20248;-64
2021/10/02 11:32:30;;;;;;;4.60;4.40;;;21.30;99.90;;;;;;5047425;28;20790;-64
2021/10/02 11:35:14;;;;;;;5.53;4.90;;;21.40;99.90;;;;;;5072134;28;20181;-64
2021/10/02 11:37:49;;;;;;;5.00;4.60;;;21.00;99.90;;;;;;5052295;28;20558;-64
2021/10/02 11:40:36;;;;;;;4.63;4.43;;;20.90;99.90;;;;;;5052306;28;20274;-64
2021/10/02 11:43:17;;;;;;;4.83;4.63;;;20.90;99.90;;;;;;5071981;28;20667;-63
2021/10/02 11:45:46;;;;;;;4.77;4.47;;;20.50;99.90;;;;;;5070315;28;20639;-64
2021/10/02 11:48:20;;;;;;;5.03;4.83;;;20.40;99.90;;;;;;5071843;28;20178;-64
2021/10/02 11:51:16;;;;;;;5.37;5.00;;;20.50;99.90;;;;;;5066830;28;20206;-64
2021/10/02 11:53:45;;;;;;;4.87;4.57;;;20.70;99.90;;;;;;5052047;28;20175;-64
2021/10/02 11:56:19;;;;;;;5.10;4.90;;;21.00;99.90;;;;;;5056583;28;20610;-64
2021/10/02 11:58:45;;;;;;;5.30;5.00;;;21.20;99.90;;;;;;5071784;28;20429;-64
2021/10/02 12:01:26;;;;;;;4.90;4.40;;;21.30;99.90;;;;;;5063877;28;20199;-64
2021/10/02 12:04:21;;;;;;;4.70;4.50;;;21.10;99.90;;;;;;5055547;28;20178;-65
2021/10/02 12:06:47;;;;;;;5.87;5.57;;;20.80;99.90;;;;;;5062571;28;20186;-64
2021/10/02 12:09:17;;;;;;;5.30;4.90;;;20.60;99.90;;;;;;5064456;28;20688;-64
2021/10/02 12:11:46;;;;;;;4.80;4.30;;;20.50;99.90;;;;;;5051749;28;20540;-65
2021/10/02 12:14:17;;;;;;;5.63;5.23;;;20.30;99.90;;;;;;5057210;28;20214;-64
2021/10/02 12:16:51;;;;;;;4.73;4.43;;;20.10;99.90;;;;;;5071511;28;20193;-64
2021/10/02 12:19:22;;;;;;;4.53;4.27;;;20.20;99.90;;;;;;5065105;28;20737;-64
2021/10/02 12:21:51;;;;;;;4.90;4.60;;;20.10;99.90;;;;;;5051665;28;20178;-64
2021/10/02 12:24:20;;;;;;;4.70;4.40;;;20.00;99.90;;;;;;5056494;28;20190;-64
2021/10/02 12:27:16;;;;;;;4.87;4.57;;;20.00;99.90;;;;;;5071455;28;20193;-64
2021/10/02 12:29:52;;;;;;;5.43;5.03;;;20.00;99.90;;;;;;5053187;28;20309;-64
2021/10/02 12:32:22;;;;;;;5.53;5.17;;;20.20;99.90;;;;;;5052365;28;20186;-63
2021/10/02 12:34:49;;;;;;;5.33;5.00;;;20.30;99.90;;;;;;5059759;28;20539;-63
2021/10/02 12:37:19;;;;;;;4.83;4.57;;;20.40;99.90;;;;;;5071509;28;20186;-64
2021/10/02 12:39:51;;;;;;;5.30;4.90;;;20.50;99.90;;;;;;5063521;28;20687;-64
2021/10/02 12:42:21;;;;;;;6.00;5.33;;;20.60;99.90;;;;;;5051241;28;20182;-63
2021/10/02 12:44:50;;;;;;;5.37;4.97;;;20.40;99.90;;;;;;5058367;28;20581;-64
2021/10/02 12:47:20;;;;;;;5.90;5.40;;;20.20;99.90;;;;;;5071210;28;20535;-63
2021/10/02 12:49:48;;;;;;;5.40;5.00;;;20.00;99.90;;;;;;5062701;28;20579;-64
2021/10/02 12:52:16;;;;;;;5.87;5.27;;;19.80;99.90;;;;;;5049937;28;20178;-64
2021/10/02 12:54:48;;;;;;;5.57;5.17;;;19.60;99.90;;;;;;5056555;28;20253;-63
2021/10/02 12:57:25;;;;;;;6.23;5.13;;;19.60;99.90;;;;;;5071045;28;20178;-64
2021/10/02 12:59:58;;;;;;;5.43;4.93;;;19.70;99.90;;;;;;5057990;28;20199;-63
2021/10/02 13:02:25;;;;;;;5.27;4.90;;;19.90;99.90;;;;;;5051138;28;20607;-63
2021/10/02 13:04:51;;;;;;;5.10;4.80;;;19.80;99.90;;;;;;5063244;28;20270;-63
2021/10/02 13:07:23;;;;;;;5.30;5.00;;;19.60;99.90;;;;;;5070828;28;20265;-63
2021/10/02 13:10:09;;;;;;;5.20;4.90;;;19.50;99.90;;;;;;5058908;28;20338;-64
2021/10/02 13:12:44;;;;;;;5.30;5.00;;;19.60;99.90;;;;;;5050942;28;20190;-64
2021/10/02 13:15:21;;;;;;;5.43;5.13;;;19.80;99.90;;;;;;5068210;28;20174;-63
2021/10/02 13:17:57;;;;;;;5.17;4.80;;;20.00;99.90;;;;;;5074901;28;20261;-64
2021/10/02 13:20:23;;;;;;;5.53;5.07;;;20.10;99.90;;;;;;5059270;28;20574;-64
2021/10/02 13:22:50;;;;;;;5.20;4.80;;;20.20;99.90;;;;;;5054906;28;20202;-64
2021/10/02 13:25:25;;;;;;;6.03;5.73;;;20.20;99.90;;;;;;5058010;28;20921;-64
2021/10/02 13:27:55;;;;;;;5.70;5.30;;;20.20;99.90;;;;;;5054727;28;20312;-63
2021/10/02 13:30:26;;;;;;;5.67;5.10;;;20.20;99.90;;;;;;5071462;28;20214;-64
2021/10/02 13:32:56;;;;;;;5.20;4.80;;;19.90;99.90;;;;;;5066523;28;20178;-64
2021/10/02 13:35:24;;;;;;;5.10;4.80;;;19.70;99.90;;;;;;5054461;28;20178;-65
2021/10/02 13:37:50;;;;;;;5.07;4.67;;;19.70;99.90;;;;;;5060892;28;20181;-64
2021/10/02 13:40:34;;;;;;;5.13;4.77;;;19.80;99.90;;;;;;5073938;28;20271;-64
2021/10/02 13:43:03;;;;;;;5.50;5.00;;;19.80;99.90;;;;;;5066666;28;20178;-63
2021/10/02 13:45:37;;;;;;;5.30;4.90;;;20.00;99.90;;;;;;5054469;28;20183;-64
2021/10/02 13:48:08;;;;;;;5.10;4.80;;;20.00;99.90;;;;;;5072863;28;20260;-63
2021/10/02 13:50:36;;;;;;;5.10;4.80;;;19.90;99.90;;;;;;5073604;28;20210;-63
2021/10/02 13:53:02;;;;;;;5.93;5.40;;;19.90;99.90;;;;;;5056071;28;20207;-64
2021/10/02 13:55:29;;;;;;;5.63;5.23;;;19.90;99.90;;;;;;5054242;28;20587;-64
2021/10/02 13:57:59;;;;;;;5.13;4.63;;;20.00;99.90;;;;;;5070005;28;20277;-64